Flight Track Log - Related Links

Times and Time Zones

All times are in EDT time to prevent confusion due to time zone crossing. See the EGF2976 flight status page for this flight to view local times or setup timezone preferences in your user account.

Time Position Orientation Groundspeed Altitude Reporting Facility
EDT Latitude Longitude Course Direction KTS MPH feet Rate Location/Type
Tue 05:00:00 PM 41.8629 -88.2384 245° Southwest  Level Estimated
Tue 05:01:00 PM 41.8239 -88.3485 245° Southwest  Level Estimated
Tue 05:02:00 PM 41.7848 -88.4584 245° Southwest  Level Estimated
Tue 05:03:00 PM 41.7455 -88.5682 244° Southwest  Level Estimated
Tue 05:04:00 PM 41.7062 -88.6779 244° Southwest  Level Estimated
Tue 05:05:00 PM 41.6667 -88.7874 244° Southwest  Level Estimated
Tue 05:06:00 PM 41.6272 -88.8968 244° Southwest  Level Estimated
Tue 05:07:00 PM 41.5876 -89.0061 244° Southwest  Level Estimated
Tue 05:08:00 PM 41.5478 -89.1152 244° Southwest  Level Estimated
Tue 05:09:00 PM 41.5079 -89.2242 244° Southwest  Level Estimated
Tue 05:10:00 PM 41.4680 -89.3331 244° Southwest  Level Estimated
Tue 05:11:00 PM 41.4279 -89.4418 244° Southwest  Level Estimated
Tue 05:12:00 PM 41.3878 -89.5504 244° Southwest  Level Estimated
Tue 05:13:00 PM 41.3475 -89.6589 244° Southwest  Level Estimated
Tue 05:14:00 PM 41.3071 -89.7672 244° Southwest  Level Estimated
Tue 05:15:00 PM 41.2667 -89.8754 244° Southwest  Level Estimated
Tue 05:16:00 PM 41.2261 -89.9835 244° Southwest  Level Estimated
Tue 05:17:00 PM 41.1854 -90.0914 243° Southwest  Level Estimated
Tue 05:18:00 PM 41.1447 -90.1992 243° Southwest  Level Estimated
Tue 05:19:00 PM 41.1038 -90.3068 243° Southwest  Level Estimated
Tue 05:20:00 PM 41.0628 -90.4144 243° Southwest  Level Estimated
Tue 05:21:00 PM 41.0218 -90.5218 243° Southwest  Level Estimated
Tue 05:22:00 PM 40.9806 -90.6290 243° Southwest  Level Estimated
Tue 05:23:00 PM 40.9393 -90.7361 243° Southwest  Level Estimated
Tue 05:24:00 PM 40.8980 -90.8431 243° Southwest  Level Estimated
Tue 05:25:00 PM 40.8565 -90.9500 243° Southwest  Level Estimated
Tue 05:26:00 PM 40.8149 -91.0567 243° Southwest  Level Estimated
Tue 05:27:00 PM 40.7733 -91.1633 243° Southwest  Level Estimated
Tue 05:28:00 PM 40.7315 -91.2697 243° Southwest  Level Estimated
Tue 05:29:00 PM 40.6897 -91.3760 243° Southwest  Level Estimated
Tue 05:30:00 PM 40.6477 -91.4822 243° Southwest  Level Estimated
Tue 05:31:00 PM 40.6056 -91.5883 242° Southwest  Level Estimated
Tue 05:32:00 PM 40.5635 -91.6942 242° Southwest  Level Estimated
Tue 05:33:00 PM 40.5212 -91.8000 242° Southwest  Level Estimated
Tue 05:34:00 PM 40.4789 -91.9056 242° Southwest  Level Estimated
Tue 05:35:00 PM 40.4365 -92.0111 242° Southwest  Level Estimated
Tue 05:36:00 PM 40.3939 -92.1165 242° Southwest  Level Estimated
Tue 05:37:00 PM 40.3513 -92.2218 242° Southwest  Level Estimated
Tue 05:38:00 PM 40.3086 -92.3269 242° Southwest  Level Estimated
Tue 05:39:00 PM 40.2658 -92.4319 242° Southwest  Level Estimated
Tue 05:40:00 PM 40.2228 -92.5367 242° Southwest  Level Estimated
Tue 05:41:00 PM 40.1798 -92.6414 242° Southwest  Level Estimated
Tue 05:42:00 PM 40.1367 -92.7460 242° Southwest  Level Estimated
Tue 05:43:00 PM 40.0935 -92.8505 242° Southwest  Level Estimated
Tue 05:44:00 PM 40.0502 -92.9548 242° Southwest  Level Estimated
Tue 05:45:00 PM 40.0069 -93.0590 241° Southwest  Level Estimated
Tue 05:46:00 PM 39.9634 -93.1630 241° Southwest  Level Estimated
Tue 05:47:00 PM 39.9198 -93.2670 241° Southwest  Level Estimated
Tue 05:48:00 PM 39.8761 -93.3708 241° Southwest  Level Estimated
Tue 05:49:00 PM 39.8324 -93.4744 241° Southwest  Level Estimated
Tue 05:50:00 PM 39.7885 -93.5779 241° Southwest  Level Estimated
Tue 05:51:00 PM 39.7446 -93.6813 241° Southwest  Level Estimated
Tue 05:52:00 PM 39.7006 -93.7846 241° Southwest  Level Estimated
Tue 05:53:00 PM 39.6564 -93.8877 241° Southwest  Level Estimated
Tue 05:54:00 PM 39.6122 -93.9907 241° Southwest  Level Estimated
Tue 05:55:00 PM 39.5679 -94.0936 241° Southwest  Level Estimated
Tue 05:56:00 PM 39.5235 -94.1963 241° Southwest  Level Estimated
Tue 05:57:00 PM 39.4790 -94.2989 241° Southwest  Level Estimated
Tue 05:58:00 PM 39.4345 -94.4014 241° Southwest  Level Estimated
Tue 05:59:00 PM 39.3898 -94.5037 241° Southwest  Level Estimated
Tue 06:00:00 PM 39.3450 -94.6059 241° Southwest  Level Estimated
Tue 06:01:00 PM 39.3002 -94.7080 240° Southwest  Level Estimated
Tue 06:02:00 PM 39.2976 -94.7139 240° Southwest  Level Estimated
Tue 06:03:00 PM 39.2976 -94.7139 North  Level Estimated
Tue 06:04:00 PM 39.2976 -94.7139 North  Level Estimated
Tue 06:05:00 PM 39.2976 -94.7139 North  Level Estimated
Tue 06:06:00 PM 39.2976 -94.7139 North  Level Estimated
Tue 06:07:00 PM 39.2976 -94.7139 North  Level Estimated
Tue 06:08:00 PM 39.2976 -94.7139 North  Level Estimated
Tue 06:09:00 PM 39.2976 -94.7139 North  Level Estimated
Tue 06:10:00 PM 39.2976 -94.7139 North  Level Estimated
Tue 06:11:00 PM 39.2976 -94.7139 North  Level Estimated
Tue 06:12:00 PM 39.2976 -94.7139 North  Level Estimated
Tue 06:13:00 PM 39.2976 -94.7139 North  Level Estimated
Tue 06:14:00 PM 39.2976 -94.7139 North  Level Estimated
Tue 06:15:00 PM 39.2976 -94.7139 North  Level Estimated
Tue 06:16:00 PM 39.2976 -94.7139 North  Level Estimated
Tue 06:17:00 PM 39.2976 -94.7139 North  Level Estimated

Login

Don't have an account? Register now (free) for customized features, flight alerts, and more!